Camp Douglas, WI

16:22 CDT le 02 septembre 2014 (GMT -0500)
Black River Falls Area | Change Station
CLOSE
Current Station
Aéroport
Location: Black River Falls,
Altitude: 837 ft
Stations météo à proximité

Alt. 837 ft 44.25 °N, 90.86 °W | Updated 7 minutes ago

Mostly Cloudy
Nuageux
76 ° F
Paraît 76 ° F
N
7
Vent Variable Vent de OSO
Gusts 16 mph

Aujourd'hui
Haut(e) -- | Bas -- ° F
--% Risque de précip.
Hier
Haut(e) -- | Bas -- ° F
Precip. -- pouce
6:25 AM 7:35 PM
Premier quartier, 55% visible
Pression 29.90 pouce
Visibilité 10.0 Miles terrestres
Nuages Nuages épars 4500 ft
Nuages épars 6000 ft
Nuageux 7500 ft
Point de rosée 55 ° F
Humidité 47%
Précipitations 0.00 pouce
Profondeur de la couche neigeuse Non disponible.
UV 2 sur 12
Pollen 8.80 sur 12
Qualité de l'air Non disponible.
Flu Activity Non disponible.
METAR KBCK 022115Z AUTO 24006G14KT 10SM SCT045 SCT060 BKN075 25/13 A2990 RMK AO2 T02470128

More Conditions Fewer Conditions

Pression 29.90 pouce
Visibilité 10.0 Miles terrestres
Nuages Nuages épars 4500 ft
Nuages épars 6000 ft
Nuageux 7500 ft
Point de rosée 55 ° F
Humidité 47%
Précipitations 0.00 pouce
Profondeur de la couche neigeuse Non disponible.
UV 2 sur 12
Pollen 8.80 sur 12
Qualité de l'air Non disponible.
Flu Activity Non disponible.
METAR KBCK 022115Z AUTO 24006G14KT 10SM SCT045 SCT060 BKN075 25/13 A2990 RMK AO2 T02470128

More Conditions Fewer Conditions

10-Day Weather Forecast

Almanac

Astronomie

Sep. 02, 2014 Lever Coucher
Temps réel 06:25 CDT 19:35 CDT
Crépuscule civil 05:55 CDT 20:04 CDT
Crépuscule nautique 05:20 CDT 20:40 CDT
Crépuscule astronomique 04:42 CDT 21:17 CDT
Lune 14:24 CDT Pas de coucher de lune
Durée de lumière visible 14h 08m
Longueur du jour
13h 09m
Tomorrow will be 2m 54s shorter.
Premier quartier, 55% of the Moon is Illuminated
Aujourd'hui
Premier quartier
Sep 8
Pleine lune
Sep 15
Dernier quartier
Sep 24
Nouveau
Oct 1
Premier quartier

Extrêmes aujourd'hui

State Highs State Lows

Community

WunderPhotos

Upload Photos

1,749,769 Photos téléchargées !

Nearby

Épaisseur de neige

Station Depth Altitude
Pas de nouvelles chutes de neige

Activité sismique

Ville Distance Mag. Time & Date
No recent earthquake activity has been reported nearby.
Minimum magnitude displayed is 2.5.

Températures des eaux côtières

Lieu Température
Aucun rapport de station

Stations météo à proximité